Santaquin, UT (84655)

3:14 AM MST on December 07, 2016 (GMT -0700)
APRSWXNET | | Change Station

Elev 4652 ft 40.04 °N, 111.74 °W | Updated 16 minutes ago

Partly Cloudy
Partly Cloudy
25 °F
Feels Like 25 °F
N
2
Wind Variable Wind from North
Gusts 7.0 mph

Today
High -- | Low -- °F
--% Chance of Precip.
Yesterday
High -- | Low -- °F
Precip. -- in
Pressure 30.13 in
Visibility 10.0 miles
Clouds Few 3800 ft
Windchill 25 °F
Dew Point 17 °F
Humidity 70%
Rainfall in
Snow Depth Not available.
7:35 AM 5:01 PM
Waxing Crescent, 51% visible
METAR KPVU 070956Z 29005KT 10SM FEW038 M04/M09 A3007 RMK AO2 SLP203 T10391089 FZRANO
Pressure 30.13 in
Visibility 10.0 miles
Clouds Few 3800 ft
Windchill 25 °F
Dew Point 17 °F
Humidity 70%
Rainfall in
Snow Depth Not available.
7:35 AM 5:01 PM
Waxing Crescent, 51% visible
METAR KPVU 070956Z 29005KT 10SM FEW038 M04/M09 A3007 RMK AO2 SLP203 T10391089 FZRANO

10-Day Weather Forecast

Almanac

Astronomy

Dec. 07, 2016 Rise Set
Actual Time
Civil Twilight
Nautical Twilight
Astronomical Twilight
Moon
Length of Visible Light
Length of Day
Tomorrow will be .
, % of the Moon is Illuminated

Today's Extremes

State Highs State Lows

Community

WunderPhotos

Upload Photos

1,956,111 photos uploaded!

WunderBlog® & News

Nearby

Air Quality

  Air Quality AQ Index Pollutant
Not available.

Snow Depth

Station Depth Elevation

Earthquake Activity

City Distance Mag. Time & Date
Minimum magnitude displayed is 2.5.

Coastal Water Temperatures

Place Temperature

Stations

Nearby Weather Stations

Station Location Temp. Windchill Dew Point Humidity Wind Precip. Elev Updated Type
                   

Watches & Warnings

There are currently no watches in effect.